sensor_id;sensor_type;location;lat;lon;timestamp;temperature;humidity
44579;DHT22;37422;51.402;0.016;2022-09-09T00:00:47;15.40;99.90
44579;DHT22;37422;51.402;0.016;2022-09-09T00:03:26;15.40;99.90
44579;DHT22;37422;51.402;0.016;2022-09-09T00:08:25;15.40;99.90
44579;DHT22;37422;51.402;0.016;2022-09-09T00:11:00;15.40;99.90
44579;DHT22;37422;51.402;0.016;2022-09-09T00:13:37;15.40;99.90
44579;DHT22;37422;51.402;0.016;2022-09-09T00:16:20;15.40;99.90
44579;DHT22;37422;51.402;0.016;2022-09-09T00:19:15;15.40;99.90
44579;DHT22;37422;51.402;0.016;2022-09-09T00:22:12;15.40;99.90
44579;DHT22;37422;51.402;0.016;2022-09-09T00:24:52;15.50;99.90
44579;DHT22;37422;51.402;0.016;2022-09-09T00:27:45;15.50;99.90
44579;DHT22;37422;51.402;0.016;2022-09-09T00:30:15;15.50;99.90
44579;DHT22;37422;51.402;0.016;2022-09-09T00:32:57;15.50;99.90
44579;DHT22;37422;51.402;0.016;2022-09-09T00:35:29;15.50;99.90
44579;DHT22;37422;51.402;0.016;2022-09-09T00:38:12;15.50;99.90
44579;DHT22;37422;51.402;0.016;2022-09-09T00:40:52;15.50;99.90
44579;DHT22;37422;51.402;0.016;2022-09-09T00:43:29;15.50;99.90
44579;DHT22;37422;51.402;0.016;2022-09-09T01:02:52;15.40;99.90
44579;DHT22;37422;51.402;0.016;2022-09-09T01:05:37;15.40;99.90
44579;DHT22;37422;51.402;0.016;2022-09-09T01:10:52;15.40;99.90
44579;DHT22;37422;51.402;0.016;2022-09-09T01:13:32;15.40;99.90
44579;DHT22;37422;51.402;0.016;2022-09-09T01:16:08;15.40;99.90
44579;DHT22;37422;51.402;0.016;2022-09-09T01:18:49;15.40;99.90
44579;DHT22;37422;51.402;0.016;2022-09-09T01:24:38;15.50;99.90
44579;DHT22;37422;51.402;0.016;2022-09-09T01:27:40;15.50;99.90
44579;DHT22;37422;51.402;0.016;2022-09-09T01:30:13;15.50;99.90
44579;DHT22;37422;51.402;0.016;2022-09-09T01:32:48;15.50;99.90
44579;DHT22;37422;51.402;0.016;2022-09-09T01:35:58;15.50;99.90
44579;DHT22;37422;51.402;0.016;2022-09-09T01:38:36;15.60;99.90
44579;DHT22;37422;51.402;0.016;2022-09-09T01:41:04;15.50;99.90
44579;DHT22;37422;51.402;0.016;2022-09-09T01:43:46;15.60;99.90
44579;DHT22;37422;51.402;0.016;2022-09-09T01:46:15;15.60;99.90
44579;DHT22;37422;51.402;0.016;2022-09-09T01:48:45;15.60;99.90
44579;DHT22;37422;51.402;0.016;2022-09-09T01:51:13;15.60;99.90
44579;DHT22;37422;51.402;0.016;2022-09-09T01:53:41;15.60;99.90
44579;DHT22;37422;51.402;0.016;2022-09-09T02:02:21;15.60;99.90
44579;DHT22;37422;51.402;0.016;2022-09-09T02:05:22;15.60;99.90
44579;DHT22;37422;51.402;0.016;2022-09-09T02:08:00;15.60;99.90
44579;DHT22;37422;51.402;0.016;2022-09-09T02:10:40;15.60;99.90
44579;DHT22;37422;51.402;0.016;2022-09-09T02:13:18;15.60;99.90
44579;DHT22;37422;51.402;0.016;2022-09-09T02:15:49;15.60;99.90
44579;DHT22;37422;51.402;0.016;2022-09-09T02:18:25;15.60;99.90
44579;DHT22;37422;51.402;0.016;2022-09-09T02:20:56;15.60;99.90
44579;DHT22;37422;51.402;0.016;2022-09-09T02:23:26;15.60;99.90
44579;DHT22;37422;51.402;0.016;2022-09-09T02:25:57;15.60;99.90
44579;DHT22;37422;51.402;0.016;2022-09-09T02:28:29;15.50;99.90
44579;DHT22;37422;51.402;0.016;2022-09-09T02:30:58;15.50;99.90
44579;DHT22;37422;51.402;0.016;2022-09-09T02:33:37;15.40;99.90
44579;DHT22;37422;51.402;0.016;2022-09-09T02:36:08;15.40;99.90
44579;DHT22;37422;51.402;0.016;2022-09-09T02:38:45;15.40;99.90
44579;DHT22;37422;51.402;0.016;2022-09-09T02:41:15;15.40;99.90
44579;DHT22;37422;51.402;0.016;2022-09-09T02:43:44;15.40;99.90
44579;DHT22;37422;51.402;0.016;2022-09-09T02:46:50;15.40;99.90
44579;DHT22;37422;51.402;0.016;2022-09-09T02:49:33;15.40;99.90
44579;DHT22;37422;51.402;0.016;2022-09-09T02:52:07;15.40;99.90
44579;DHT22;37422;51.402;0.016;2022-09-09T02:54:40;15.40;99.90
44579;DHT22;37422;51.402;0.016;2022-09-09T02:57:21;15.40;99.90
44579;DHT22;37422;51.402;0.016;2022-09-09T02:59:50;15.40;99.90
44579;DHT22;37422;51.402;0.016;2022-09-09T03:02:20;15.40;99.90
44579;DHT22;37422;51.402;0.016;2022-09-09T03:04:54;15.50;99.90
44579;DHT22;37422;51.402;0.016;2022-09-09T03:07:21;15.50;99.90
44579;DHT22;37422;51.402;0.016;2022-09-09T03:09:51;15.40;99.90
44579;DHT22;37422;51.402;0.016;2022-09-09T03:12:20;15.50;99.90
44579;DHT22;37422;51.402;0.016;2022-09-09T03:14:48;15.40;99.90
44579;DHT22;37422;51.402;0.016;2022-09-09T03:17:16;15.50;99.90
44579;DHT22;37422;51.402;0.016;2022-09-09T03:19:50;15.40;99.90
44579;DHT22;37422;51.402;0.016;2022-09-09T03:22:19;15.40;99.90
44579;DHT22;37422;51.402;0.016;2022-09-09T03:24:49;15.40;99.90
44579;DHT22;37422;51.402;0.016;2022-09-09T03:27:17;15.40;99.90
44579;DHT22;37422;51.402;0.016;2022-09-09T03:29:46;15.40;99.90
44579;DHT22;37422;51.402;0.016;2022-09-09T03:32:19;15.40;99.90
44579;DHT22;37422;51.402;0.016;2022-09-09T03:34:49;15.40;99.90
44579;DHT22;37422;51.402;0.016;2022-09-09T03:37:18;15.40;99.90
44579;DHT22;37422;51.402;0.016;2022-09-09T03:39:49;15.40;99.90
44579;DHT22;37422;51.402;0.016;2022-09-09T03:42:18;15.40;99.90
44579;DHT22;37422;51.402;0.016;2022-09-09T03:44:49;15.40;99.90
44579;DHT22;37422;51.402;0.016;2022-09-09T03:47:20;15.50;99.90
44579;DHT22;37422;51.402;0.016;2022-09-09T03:49:53;15.50;99.90
44579;DHT22;37422;51.402;0.016;2022-09-09T03:52:21;15.50;99.90
44579;DHT22;37422;51.402;0.016;2022-09-09T03:54:53;15.40;99.90
44579;DHT22;37422;51.402;0.016;2022-09-09T03:57:21;15.40;99.90
44579;DHT22;37422;51.402;0.016;2022-09-09T03:59:53;15.40;99.90
44579;DHT22;37422;51.402;0.016;2022-09-09T04:02:21;15.40;99.90
44579;DHT22;37422;51.402;0.016;2022-09-09T04:04:49;15.50;99.90
44579;DHT22;37422;51.402;0.016;2022-09-09T04:07:17;15.30;99.90
44579;DHT22;37422;51.402;0.016;2022-09-09T04:09:45;15.50;99.90
44579;DHT22;37422;51.402;0.016;2022-09-09T04:12:14;15.50;99.90
44579;DHT22;37422;51.402;0.016;2022-09-09T04:14:42;15.60;99.90
44579;DHT22;37422;51.402;0.016;2022-09-09T04:17:10;15.50;99.90
44579;DHT22;37422;51.402;0.016;2022-09-09T04:19:38;15.50;99.90
44579;DHT22;37422;51.402;0.016;2022-09-09T04:22:06;15.50;99.90
44579;DHT22;37422;51.402;0.016;2022-09-09T04:24:34;15.50;99.90
44579;DHT22;37422;51.402;0.016;2022-09-09T04:27:02;15.50;99.90
44579;DHT22;37422;51.402;0.016;2022-09-09T04:29:33;15.50;99.90
44579;DHT22;37422;51.402;0.016;2022-09-09T04:32:01;15.50;99.90
44579;DHT22;37422;51.402;0.016;2022-09-09T04:34:29;15.50;99.90
44579;DHT22;37422;51.402;0.016;2022-09-09T04:36:59;15.50;99.90
44579;DHT22;37422;51.402;0.016;2022-09-09T04:39:28;15.50;99.90
44579;DHT22;37422;51.402;0.016;2022-09-09T04:41:58;15.50;99.90
44579;DHT22;37422;51.402;0.016;2022-09-09T04:44:26;15.50;99.90
44579;DHT22;37422;51.402;0.016;2022-09-09T04:46:54;15.50;99.90
44579;DHT22;37422;51.402;0.016;2022-09-09T04:49:22;15.50;99.90
44579;DHT22;37422;51.402;0.016;2022-09-09T04:51:50;15.50;99.90
44579;DHT22;37422;51.402;0.016;2022-09-09T04:54:18;15.40;99.90
44579;DHT22;37422;51.402;0.016;2022-09-09T04:56:46;15.50;99.90
44579;DHT22;37422;51.402;0.016;2022-09-09T04:59:14;15.40;99.90
44579;DHT22;37422;51.402;0.016;2022-09-09T05:01:46;15.50;99.90
44579;DHT22;37422;51.402;0.016;2022-09-09T05:04:14;15.40;99.90
44579;DHT22;37422;51.402;0.016;2022-09-09T05:06:43;15.40;99.90
44579;DHT22;37422;51.402;0.016;2022-09-09T05:09:13;15.40;99.90
44579;DHT22;37422;51.402;0.016;2022-09-09T05:11:41;15.40;99.90
44579;DHT22;37422;51.402;0.016;2022-09-09T05:14:16;15.40;99.90
44579;DHT22;37422;51.402;0.016;2022-09-09T05:16:47;15.50;99.90
44579;DHT22;37422;51.402;0.016;2022-09-09T05:19:17;15.40;99.90
44579;DHT22;37422;51.402;0.016;2022-09-09T05:21:48;15.40;99.90
44579;DHT22;37422;51.402;0.016;2022-09-09T05:24:22;15.40;99.90
44579;DHT22;37422;51.402;0.016;2022-09-09T05:26:53;15.40;99.90
44579;DHT22;37422;51.402;0.016;2022-09-09T05:29:21;15.40;99.90
44579;DHT22;37422;51.402;0.016;2022-09-09T05:31:49;15.40;99.90
44579;DHT22;37422;51.402;0.016;2022-09-09T05:34:20;15.40;99.90
44579;DHT22;37422;51.402;0.016;2022-09-09T05:36:49;15.40;99.90
44579;DHT22;37422;51.402;0.016;2022-09-09T05:39:20;15.40;99.90
44579;DHT22;37422;51.402;0.016;2022-09-09T05:41:47;15.40;99.90
44579;DHT22;37422;51.402;0.016;2022-09-09T05:44:15;15.40;99.90
44579;DHT22;37422;51.402;0.016;2022-09-09T05:46:44;15.40;99.90
44579;DHT22;37422;51.402;0.016;2022-09-09T05:49:13;15.40;99.90
44579;DHT22;37422;51.402;0.016;2022-09-09T05:51:43;15.40;99.90
44579;DHT22;37422;51.402;0.016;2022-09-09T05:54:13;15.40;99.90
44579;DHT22;37422;51.402;0.016;2022-09-09T05:56:47;15.40;99.90
44579;DHT22;37422;51.402;0.016;2022-09-09T05:59:19;15.40;99.90
44579;DHT22;37422;51.402;0.016;2022-09-09T06:01:47;15.40;99.90
44579;DHT22;37422;51.402;0.016;2022-09-09T06:04:23;15.50;99.90
44579;DHT22;37422;51.402;0.016;2022-09-09T06:06:53;15.50;99.90
44579;DHT22;37422;51.402;0.016;2022-09-09T06:09:22;15.50;99.90
44579;DHT22;37422;51.402;0.016;2022-09-09T06:11:50;15.50;99.90
44579;DHT22;37422;51.402;0.016;2022-09-09T06:14:20;15.50;99.90
44579;DHT22;37422;51.402;0.016;2022-09-09T06:16:50;15.50;99.90
44579;DHT22;37422;51.402;0.016;2022-09-09T06:19:21;15.50;99.90
44579;DHT22;37422;51.402;0.016;2022-09-09T06:21:50;15.60;99.90
44579;DHT22;37422;51.402;0.016;2022-09-09T06:24:18;15.60;99.90
44579;DHT22;37422;51.402;0.016;2022-09-09T06:26:47;15.70;99.90
44579;DHT22;37422;51.402;0.016;2022-09-09T06:29:26;15.70;99.90
44579;DHT22;37422;51.402;0.016;2022-09-09T06:31:53;15.70;99.90
44579;DHT22;37422;51.402;0.016;2022-09-09T06:34:23;15.70;99.90
44579;DHT22;37422;51.402;0.016;2022-09-09T06:36:55;15.70;99.90
44579;DHT22;37422;51.402;0.016;2022-09-09T06:39:28;15.70;99.90
44579;DHT22;37422;51.402;0.016;2022-09-09T06:41:55;15.70;99.90
44579;DHT22;37422;51.402;0.016;2022-09-09T06:44:43;15.80;99.90
44579;DHT22;37422;51.402;0.016;2022-09-09T06:47:17;15.80;99.90
44579;DHT22;37422;51.402;0.016;2022-09-09T06:49:47;15.90;99.90
44579;DHT22;37422;51.402;0.016;2022-09-09T06:52:16;15.90;99.90
44579;DHT22;37422;51.402;0.016;2022-09-09T06:54:54;15.90;99.90
44579;DHT22;37422;51.402;0.016;2022-09-09T06:57:22;15.90;99.90
44579;DHT22;37422;51.402;0.016;2022-09-09T07:00:11;15.90;99.90
44579;DHT22;37422;51.402;0.016;2022-09-09T07:02:41;15.90;99.90
44579;DHT22;37422;51.402;0.016;2022-09-09T07:05:13;15.90;99.90
44579;DHT22;37422;51.402;0.016;2022-09-09T07:07:45;15.90;99.90
44579;DHT22;37422;51.402;0.016;2022-09-09T07:10:14;16.00;99.90
44579;DHT22;37422;51.402;0.016;2022-09-09T07:12:44;16.10;99.90
44579;DHT22;37422;51.402;0.016;2022-09-09T07:15:13;16.10;99.90
44579;DHT22;37422;51.402;0.016;2022-09-09T07:17:44;16.10;99.90
44579;DHT22;37422;51.402;0.016;2022-09-09T07:20:12;16.20;99.90
44579;DHT22;37422;51.402;0.016;2022-09-09T07:22:42;16.20;99.90
44579;DHT22;37422;51.402;0.016;2022-09-09T07:25:10;16.30;99.90
44579;DHT22;37422;51.402;0.016;2022-09-09T07:27:50;16.30;99.90
44579;DHT22;37422;51.402;0.016;2022-09-09T07:30:19;16.30;99.90
44579;DHT22;37422;51.402;0.016;2022-09-09T07:32:53;16.40;99.90
44579;DHT22;37422;51.402;0.016;2022-09-09T07:35:24;16.40;99.90
44579;DHT22;37422;51.402;0.016;2022-09-09T07:37:51;16.40;99.90
44579;DHT22;37422;51.402;0.016;2022-09-09T07:40:20;16.50;99.90
44579;DHT22;37422;51.402;0.016;2022-09-09T07:42:49;16.50;99.90
44579;DHT22;37422;51.402;0.016;2022-09-09T07:45:17;16.60;99.90
44579;DHT22;37422;51.402;0.016;2022-09-09T07:47:45;16.60;99.90
44579;DHT22;37422;51.402;0.016;2022-09-09T07:50:12;16.50;99.90
44579;DHT22;37422;51.402;0.016;2022-09-09T07:52:40;16.50;99.90
44579;DHT22;37422;51.402;0.016;2022-09-09T07:55:08;16.40;99.90
44579;DHT22;37422;51.402;0.016;2022-09-09T07:57:37;16.40;99.90
44579;DHT22;37422;51.402;0.016;2022-09-09T08:00:05;16.40;99.90
44579;DHT22;37422;51.402;0.016;2022-09-09T08:02:38;16.40;99.90
44579;DHT22;37422;51.402;0.016;2022-09-09T08:05:07;16.40;99.90
44579;DHT22;37422;51.402;0.016;2022-09-09T08:07:36;16.40;99.90
44579;DHT22;37422;51.402;0.016;2022-09-09T08:10:05;16.50;99.90
44579;DHT22;37422;51.402;0.016;2022-09-09T08:12:36;16.50;99.90
44579;DHT22;37422;51.402;0.016;2022-09-09T08:15:04;16.60;99.90
44579;DHT22;37422;51.402;0.016;2022-09-09T08:17:34;16.80;99.90
44579;DHT22;37422;51.402;0.016;2022-09-09T08:20:05;16.90;99.90
44579;DHT22;37422;51.402;0.016;2022-09-09T08:22:34;17.10;99.90
44579;DHT22;37422;51.402;0.016;2022-09-09T08:25:02;17.20;99.90
44579;DHT22;37422;51.402;0.016;2022-09-09T08:27:35;17.40;99.90
44579;DHT22;37422;51.402;0.016;2022-09-09T08:30:03;17.50;99.90
44579;DHT22;37422;51.402;0.016;2022-09-09T08:32:31;17.80;99.90
44579;DHT22;37422;51.402;0.016;2022-09-09T08:34:59;18.00;99.90
44579;DHT22;37422;51.402;0.016;2022-09-09T08:37:29;18.20;99.90
44579;DHT22;37422;51.402;0.016;2022-09-09T08:39:57;18.40;99.90
44579;DHT22;37422;51.402;0.016;2022-09-09T08:43:04;18.50;99.90
44579;DHT22;37422;51.402;0.016;2022-09-09T08:45:54;18.70;99.90
44579;DHT22;37422;51.402;0.016;2022-09-09T08:48:38;19.00;99.90
44579;DHT22;37422;51.402;0.016;2022-09-09T08:51:11;19.00;99.90
44579;DHT22;37422;51.402;0.016;2022-09-09T08:53:45;18.90;99.90
44579;DHT22;37422;51.402;0.016;2022-09-09T08:56:22;18.90;99.90
44579;DHT22;37422;51.402;0.016;2022-09-09T08:58:55;18.80;99.90
44579;DHT22;37422;51.402;0.016;2022-09-09T09:04:57;18.60;99.90
44579;DHT22;37422;51.402;0.016;2022-09-09T09:13:22;18.00;99.90
44579;DHT22;37422;51.402;0.016;2022-09-09T09:15:58;17.80;99.90
44579;DHT22;37422;51.402;0.016;2022-09-09T09:18:28;17.70;99.90
44579;DHT22;37422;51.402;0.016;2022-09-09T09:21:18;17.50;99.90
44579;DHT22;37422;51.402;0.016;2022-09-09T09:23:59;17.40;99.90
44579;DHT22;37422;51.402;0.016;2022-09-09T09:26:35;17.40;99.90
44579;DHT22;37422;51.402;0.016;2022-09-09T09:29:15;17.40;99.90
44579;DHT22;37422;51.402;0.016;2022-09-09T09:31:52;17.50;99.90
44579;DHT22;37422;51.402;0.016;2022-09-09T09:34:23;17.50;99.90
44579;DHT22;37422;51.402;0.016;2022-09-09T09:36:54;17.60;99.90
44579;DHT22;37422;51.402;0.016;2022-09-09T09:39:28;17.60;99.90
44579;DHT22;37422;51.402;0.016;2022-09-09T09:42:17;17.70;99.90
44579;DHT22;37422;51.402;0.016;2022-09-09T09:44:52;17.90;99.90
44579;DHT22;37422;51.402;0.016;2022-09-09T09:47:22;18.10;99.90
44579;DHT22;37422;51.402;0.016;2022-09-09T09:50:00;18.40;99.90
44579;DHT22;37422;51.402;0.016;2022-09-09T09:52:35;18.80;99.90
44579;DHT22;37422;51.402;0.016;2022-09-09T09:55:12;19.10;99.90
44579;DHT22;37422;51.402;0.016;2022-09-09T09:57:42;19.30;99.90
44579;DHT22;37422;51.402;0.016;2022-09-09T10:00:16;19.40;99.90
44579;DHT22;37422;51.402;0.016;2022-09-09T10:02:51;19.50;99.90
44579;DHT22;37422;51.402;0.016;2022-09-09T10:05:29;19.60;99.90
44579;DHT22;37422;51.402;0.016;2022-09-09T10:13:44;19.40;99.90
44579;DHT22;37422;51.402;0.016;2022-09-09T10:19:33;19.40;99.90
44579;DHT22;37422;51.402;0.016;2022-09-09T10:27:55;19.10;99.90
44579;DHT22;37422;51.402;0.016;2022-09-09T10:30:14;19.00;99.90
44579;DHT22;37422;51.402;0.016;2022-09-09T10:32:49;18.90;99.90
44579;DHT22;37422;51.402;0.016;2022-09-09T10:49:52;19.10;99.90
44579;DHT22;37422;51.402;0.016;2022-09-09T10:57:46;19.50;99.90
44579;DHT22;37422;51.402;0.016;2022-09-09T11:03:01;19.40;99.90
44579;DHT22;37422;51.402;0.016;2022-09-09T11:05:41;19.30;99.90
44579;DHT22;37422;51.402;0.016;2022-09-09T11:13:49;18.90;99.90
44579;DHT22;37422;51.402;0.016;2022-09-09T11:16:45;18.80;99.90
44579;DHT22;37422;51.402;0.016;2022-09-09T11:19:26;18.90;99.90
44579;DHT22;37422;51.402;0.016;2022-09-09T11:21:57;19.10;99.90
44579;DHT22;37422;51.402;0.016;2022-09-09T11:24:41;19.30;99.90
44579;DHT22;37422;51.402;0.016;2022-09-09T11:27:50;19.50;99.90
44579;DHT22;37422;51.402;0.016;2022-09-09T11:30:52;19.60;99.90
44579;DHT22;37422;51.402;0.016;2022-09-09T11:44:42;20.20;99.90
44579;DHT22;37422;51.402;0.016;2022-09-09T11:47:25;20.20;99.90
44579;DHT22;37422;51.402;0.016;2022-09-09T11:52:44;20.00;99.90
44579;DHT22;37422;51.402;0.016;2022-09-09T11:55:25;19.80;99.90
44579;DHT22;37422;51.402;0.016;2022-09-09T12:00:43;19.50;99.90
44579;DHT22;37422;51.402;0.016;2022-09-09T12:03:46;19.60;99.90
44579;DHT22;37422;51.402;0.016;2022-09-09T12:09:09;20.00;99.90
44579;DHT22;37422;51.402;0.016;2022-09-09T12:11:39;20.60;99.90
44579;DHT22;37422;51.402;0.016;2022-09-09T12:14:23;21.20;99.90
44579;DHT22;37422;51.402;0.016;2022-09-09T12:17:20;21.50;99.90
44579;DHT22;37422;51.402;0.016;2022-09-09T12:20:14;21.70;99.90
44579;DHT22;37422;51.402;0.016;2022-09-09T12:25:51;21.70;99.90
44579;DHT22;37422;51.402;0.016;2022-09-09T12:34:17;21.70;99.90
44579;DHT22;37422;51.402;0.016;2022-09-09T12:36:50;21.90;99.90
44579;DHT22;37422;51.402;0.016;2022-09-09T12:39:34;22.40;99.90
44579;DHT22;37422;51.402;0.016;2022-09-09T12:42:03;22.90;99.90
44579;DHT22;37422;51.402;0.016;2022-09-09T12:44:31;23.30;99.90
44579;DHT22;37422;51.402;0.016;2022-09-09T12:47:02;23.70;99.90
44579;DHT22;37422;51.402;0.016;2022-09-09T12:49:38;24.20;99.90
44579;DHT22;37422;51.402;0.016;2022-09-09T12:52:16;24.40;99.90
44579;DHT22;37422;51.402;0.016;2022-09-09T12:54:45;24.40;99.90
44579;DHT22;37422;51.402;0.016;2022-09-09T12:57:15;24.50;99.90
44579;DHT22;37422;51.402;0.016;2022-09-09T12:59:43;24.80;99.90
44579;DHT22;37422;51.402;0.016;2022-09-09T13:02:22;25.10;99.90
44579;DHT22;37422;51.402;0.016;2022-09-09T13:04:50;25.30;99.90
44579;DHT22;37422;51.402;0.016;2022-09-09T13:07:20;25.40;99.90
44579;DHT22;37422;51.402;0.016;2022-09-09T13:09:49;25.40;99.90
44579;DHT22;37422;51.402;0.016;2022-09-09T13:12:20;25.40;99.90
44579;DHT22;37422;51.402;0.016;2022-09-09T13:14:50;25.60;99.80
44579;DHT22;37422;51.402;0.016;2022-09-09T13:17:23;25.70;99.10
44579;DHT22;37422;51.402;0.016;2022-09-09T13:19:52;25.80;98.90
44579;DHT22;37422;51.402;0.016;2022-09-09T13:22:30;26.00;96.70
44579;DHT22;37422;51.402;0.016;2022-09-09T13:25:05;25.70;97.70
44579;DHT22;37422;51.402;0.016;2022-09-09T13:27:52;25.30;98.00
44579;DHT22;37422;51.402;0.016;2022-09-09T13:30:22;25.10;97.40
44579;DHT22;37422;51.402;0.016;2022-09-09T13:33:01;25.10;98.80
44579;DHT22;37422;51.402;0.016;2022-09-09T13:35:29;25.10;96.90
44579;DHT22;37422;51.402;0.016;2022-09-09T13:37:58;25.00;99.00
44579;DHT22;37422;51.402;0.016;2022-09-09T13:40:27;24.90;98.90
44579;DHT22;37422;51.402;0.016;2022-09-09T13:42:56;24.70;98.90
44579;DHT22;37422;51.402;0.016;2022-09-09T13:45:26;24.60;98.80
44579;DHT22;37422;51.402;0.016;2022-09-09T13:47:54;24.40;98.40
44579;DHT22;37422;51.402;0.016;2022-09-09T13:50:25;24.10;98.00
44579;DHT22;37422;51.402;0.016;2022-09-09T13:52:56;23.70;97.90
44579;DHT22;37422;51.402;0.016;2022-09-09T13:55:27;23.30;97.80
44579;DHT22;37422;51.402;0.016;2022-09-09T13:57:58;22.90;98.20
44579;DHT22;37422;51.402;0.016;2022-09-09T14:00:32;22.70;98.40
44579;DHT22;37422;51.402;0.016;2022-09-09T14:03:01;22.50;98.20
44579;DHT22;37422;51.402;0.016;2022-09-09T14:05:33;22.40;98.70
44579;DHT22;37422;51.402;0.016;2022-09-09T14:08:04;22.20;99.00
44579;DHT22;37422;51.402;0.016;2022-09-09T14:10:31;22.20;99.20
44579;DHT22;37422;51.402;0.016;2022-09-09T14:13:00;22.20;99.40
44579;DHT22;37422;51.402;0.016;2022-09-09T14:15:28;22.30;99.40
44579;DHT22;37422;51.402;0.016;2022-09-09T14:17:56;22.20;98.90
44579;DHT22;37422;51.402;0.016;2022-09-09T14:20:26;22.20;99.20
44579;DHT22;37422;51.402;0.016;2022-09-09T14:22:53;22.10;99.20
44579;DHT22;37422;51.402;0.016;2022-09-09T14:25:22;21.90;99.40
44579;DHT22;37422;51.402;0.016;2022-09-09T14:27:58;21.80;99.50
44579;DHT22;37422;51.402;0.016;2022-09-09T14:30:26;21.60;99.50
44579;DHT22;37422;51.402;0.016;2022-09-09T14:32:54;21.50;99.60
44579;DHT22;37422;51.402;0.016;2022-09-09T14:35:21;21.40;99.80
44579;DHT22;37422;51.402;0.016;2022-09-09T14:37:50;21.40;99.90
44579;DHT22;37422;51.402;0.016;2022-09-09T14:40:19;21.40;99.90
44579;DHT22;37422;51.402;0.016;2022-09-09T14:42:46;21.40;99.50
44579;DHT22;37422;51.402;0.016;2022-09-09T14:45:14;21.50;99.70
44579;DHT22;37422;51.402;0.016;2022-09-09T14:47:42;21.50;99.70
44579;DHT22;37422;51.402;0.016;2022-09-09T14:50:10;21.50;99.70
44579;DHT22;37422;51.402;0.016;2022-09-09T14:52:39;21.30;99.70
44579;DHT22;37422;51.402;0.016;2022-09-09T14:55:07;21.20;99.80
44579;DHT22;37422;51.402;0.016;2022-09-09T14:57:35;21.10;99.90
44579;DHT22;37422;51.402;0.016;2022-09-09T15:00:03;21.00;99.90
44579;DHT22;37422;51.402;0.016;2022-09-09T15:02:33;20.80;99.90
44579;DHT22;37422;51.402;0.016;2022-09-09T15:05:00;20.80;99.90
44579;DHT22;37422;51.402;0.016;2022-09-09T15:07:29;20.70;99.90
44579;DHT22;37422;51.402;0.016;2022-09-09T15:09:59;20.70;99.90
44579;DHT22;37422;51.402;0.016;2022-09-09T15:12:33;20.70;99.90
44579;DHT22;37422;51.402;0.016;2022-09-09T15:15:03;20.60;99.90
44579;DHT22;37422;51.402;0.016;2022-09-09T15:17:31;20.60;99.90
44579;DHT22;37422;51.402;0.016;2022-09-09T15:20:03;20.60;99.90
44579;DHT22;37422;51.402;0.016;2022-09-09T15:22:32;20.60;99.90
44579;DHT22;37422;51.402;0.016;2022-09-09T15:25:01;20.60;99.90
44579;DHT22;37422;51.402;0.016;2022-09-09T15:27:28;20.70;99.90
44579;DHT22;37422;51.402;0.016;2022-09-09T15:29:58;20.60;99.90
44579;DHT22;37422;51.402;0.016;2022-09-09T15:32:26;20.60;99.90
44579;DHT22;37422;51.402;0.016;2022-09-09T15:34:54;20.60;99.90
44579;DHT22;37422;51.402;0.016;2022-09-09T15:37:22;20.50;99.90
44579;DHT22;37422;51.402;0.016;2022-09-09T15:39:50;20.40;99.90
44579;DHT22;37422;51.402;0.016;2022-09-09T15:42:18;20.20;99.90
44579;DHT22;37422;51.402;0.016;2022-09-09T15:44:45;20.20;99.90
44579;DHT22;37422;51.402;0.016;2022-09-09T15:47:13;20.00;99.90
44579;DHT22;37422;51.402;0.016;2022-09-09T15:49:41;20.00;99.90
44579;DHT22;37422;51.402;0.016;2022-09-09T15:52:11;20.00;99.90
44579;DHT22;37422;51.402;0.016;2022-09-09T15:54:39;20.00;99.90
44579;DHT22;37422;51.402;0.016;2022-09-09T15:57:10;20.10;99.90
44579;DHT22;37422;51.402;0.016;2022-09-09T15:59:38;20.10;99.90
44579;DHT22;37422;51.402;0.016;2022-09-09T16:02:09;20.10;99.90
44579;DHT22;37422;51.402;0.016;2022-09-09T16:04:40;20.10;99.90
44579;DHT22;37422;51.402;0.016;2022-09-09T16:07:09;20.00;99.90
44579;DHT22;37422;51.402;0.016;2022-09-09T16:09:37;20.00;99.90
44579;DHT22;37422;51.402;0.016;2022-09-09T16:12:05;19.80;99.90
44579;DHT22;37422;51.402;0.016;2022-09-09T16:14:40;19.50;99.90
44579;DHT22;37422;51.402;0.016;2022-09-09T16:17:26;19.10;99.90
44579;DHT22;37422;51.402;0.016;2022-09-09T16:19:55;18.70;99.90
44579;DHT22;37422;51.402;0.016;2022-09-09T16:22:24;18.50;99.90
44579;DHT22;37422;51.402;0.016;2022-09-09T16:24:52;18.40;99.90
44579;DHT22;37422;51.402;0.016;2022-09-09T16:27:20;18.30;99.90
44579;DHT22;37422;51.402;0.016;2022-09-09T16:29:50;18.30;99.90
44579;DHT22;37422;51.402;0.016;2022-09-09T16:32:19;18.40;99.90
44579;DHT22;37422;51.402;0.016;2022-09-09T16:34:47;18.40;99.90
44579;DHT22;37422;51.402;0.016;2022-09-09T16:37:15;18.50;99.90
44579;DHT22;37422;51.402;0.016;2022-09-09T16:39:43;18.50;99.90
44579;DHT22;37422;51.402;0.016;2022-09-09T16:42:11;18.50;99.90
44579;DHT22;37422;51.402;0.016;2022-09-09T16:44:39;18.50;99.90
44579;DHT22;37422;51.402;0.016;2022-09-09T16:47:06;18.50;99.90
44579;DHT22;37422;51.402;0.016;2022-09-09T16:49:34;18.50;99.90
44579;DHT22;37422;51.402;0.016;2022-09-09T16:52:08;18.40;99.90
44579;DHT22;37422;51.402;0.016;2022-09-09T16:54:38;18.40;99.90
44579;DHT22;37422;51.402;0.016;2022-09-09T16:57:05;18.40;99.90
44579;DHT22;37422;51.402;0.016;2022-09-09T16:59:34;18.40;99.90
44579;DHT22;37422;51.402;0.016;2022-09-09T17:02:01;18.40;99.90
44579;DHT22;37422;51.402;0.016;2022-09-09T17:04:32;18.50;99.90
44579;DHT22;37422;51.402;0.016;2022-09-09T17:07:00;18.60;99.90
44579;DHT22;37422;51.402;0.016;2022-09-09T17:09:29;18.60;99.90
44579;DHT22;37422;51.402;0.016;2022-09-09T17:11:58;18.70;99.90
44579;DHT22;37422;51.402;0.016;2022-09-09T17:14:26;18.70;99.90
44579;DHT22;37422;51.402;0.016;2022-09-09T17:16:54;18.70;99.90
44579;DHT22;37422;51.402;0.016;2022-09-09T17:19:21;18.70;99.90
44579;DHT22;37422;51.402;0.016;2022-09-09T17:21:49;18.70;99.90
44579;DHT22;37422;51.402;0.016;2022-09-09T17:24:37;18.70;99.90
44579;DHT22;37422;51.402;0.016;2022-09-09T17:27:06;18.70;99.90
44579;DHT22;37422;51.402;0.016;2022-09-09T17:29:34;18.70;99.90
44579;DHT22;37422;51.402;0.016;2022-09-09T17:32:04;18.70;99.90
44579;DHT22;37422;51.402;0.016;2022-09-09T17:34:33;18.60;99.90
44579;DHT22;37422;51.402;0.016;2022-09-09T17:37:01;18.50;99.90
44579;DHT22;37422;51.402;0.016;2022-09-09T17:39:29;18.50;99.90
44579;DHT22;37422;51.402;0.016;2022-09-09T17:45:03;18.40;99.90
44579;DHT22;37422;51.402;0.016;2022-09-09T17:47:31;18.20;99.90
44579;DHT22;37422;51.402;0.016;2022-09-09T17:49:59;18.10;99.90
44579;DHT22;37422;51.402;0.016;2022-09-09T17:52:27;18.00;99.90
44579;DHT22;37422;51.402;0.016;2022-09-09T17:54:54;17.90;99.90
44579;DHT22;37422;51.402;0.016;2022-09-09T17:57:24;17.80;99.90